Time;durP1;ratioP1;P1;durP2;ratioP2;P2;SDS_P1;SDS_P2;PMS_P1;PMS_P2;Temp;Humidity;BMP_temperature;BMP_pressure;BME280_temperature;BME280_humidity;BME280_pressure;Samples;Min_cycle;Max_cycle;Signal;HPM_P1;HPM_P2
2022/08/31 00:04:56;;;;;;;0.52;0.40;;;19.00;96.20;;;;;;4977693;28;20450;-70
2022/08/31 00:07:22;;;;;;;2.30;0.30;;;19.00;96.00;;;;;;4977552;28;20053;-70
2022/08/31 00:09:48;;;;;;;1.10;0.20;;;19.00;96.00;;;;;;4977755;28;20050;-70
2022/08/31 00:12:14;;;;;;;0.38;0.15;;;19.00;96.00;;;;;;4977366;28;20043;-70
2022/08/31 00:14:40;;;;;;;0.60;0.20;;;18.90;95.60;;;;;;4977763;28;20037;-70
2022/08/31 00:17:06;;;;;;;1.48;0.25;;;18.90;96.00;;;;;;4977834;28;20397;-70
2022/08/31 00:19:32;;;;;;;3.08;0.50;;;18.90;96.00;;;;;;4976833;28;20066;-70
2022/08/31 00:21:57;;;;;;;0.90;0.20;;;18.90;96.00;;;;;;4977432;28;20445;-71
2022/08/31 00:24:23;;;;;;;1.00;0.30;;;18.90;95.90;;;;;;4977585;28;20043;-70
2022/08/31 00:26:49;;;;;;;0.70;0.28;;;18.90;96.00;;;;;;4977660;28;20358;-70
2022/08/31 00:29:14;;;;;;;1.23;0.30;;;18.80;96.00;;;;;;4977355;28;20039;-70
2022/08/31 00:31:40;;;;;;;1.08;0.20;;;18.80;96.00;;;;;;4992445;28;20049;-70
2022/08/31 00:34:06;;;;;;;1.33;0.20;;;18.80;96.00;;;;;;4977461;28;20043;-70
2022/08/31 00:36:32;;;;;;;1.17;0.22;;;18.70;96.00;;;;;;4977391;28;20117;-70
2022/08/31 00:38:57;;;;;;;2.25;0.20;;;18.60;96.10;;;;;;4977636;28;20046;-70
2022/08/31 00:41:27;;;;;;;0.50;0.10;;;18.60;96.00;;;;;;4977454;28;20039;-70
2022/08/31 00:43:59;;;;;;;0.40;0.10;;;18.60;96.10;;;;;;4977094;28;20042;-70
2022/08/31 00:46:28;;;;;;;1.67;0.20;;;18.50;96.30;;;;;;4977481;28;20047;-70
2022/08/31 00:49:12;;;;;;;0.95;0.10;;;18.30;96.10;;;;;;4992654;28;20050;-70
2022/08/31 00:51:55;;;;;;;0.90;0.28;;;18.30;96.10;;;;;;4978180;28;20078;-70
2022/08/31 00:54:27;;;;;;;0.40;0.20;;;18.20;96.10;;;;;;4981051;28;20046;-70
2022/08/31 00:56:53;;;;;;;1.75;0.10;;;18.20;96.30;;;;;;4981327;28;20046;-70
2022/08/31 00:59:20;;;;;;;0.57;0.10;;;18.00;95.90;;;;;;4980954;28;20058;-71
2022/08/31 01:01:46;;;;;;;0.98;0.17;;;18.00;96.20;;;;;;4981049;28;20043;-70
2022/08/31 01:04:12;;;;;;;2.50;0.30;;;18.00;96.20;;;;;;4996080;28;20039;-70
2022/08/31 01:06:38;;;;;;;1.25;0.20;;;17.90;96.20;;;;;;4980948;28;20114;-70
2022/08/31 01:09:06;;;;;;;0.93;0.17;;;18.00;96.30;;;;;;4980771;28;20469;-70
2022/08/31 01:11:33;;;;;;;1.92;0.22;;;18.00;96.40;;;;;;4980838;28;20101;-70
2022/08/31 01:13:59;;;;;;;1.02;0.30;;;18.00;96.30;;;;;;4980254;28;20042;-70
2022/08/31 01:16:35;;;;;;;0.90;0.30;;;18.00;96.30;;;;;;4980670;28;20035;-70
2022/08/31 01:19:02;;;;;;;;;;;18.00;96.40;;;;;;4981253;28;20482;-70
2022/08/31 01:21:40;;;;;;;1.02;0.30;;;17.90;96.20;;;;;;4980894;28;20324;-70
2022/08/31 01:24:07;;;;;;;1.55;0.10;;;17.80;96.40;;;;;;4980580;28;20070;-70
2022/08/31 01:26:34;;;;;;;1.52;0.40;;;17.80;96.40;;;;;;4980321;28;20050;-70
2022/08/31 01:29:03;;;;;;;0.75;0.20;;;17.80;96.50;;;;;;4980626;28;20047;-70
2022/08/31 01:31:38;;;;;;;0.68;0.20;;;17.80;96.50;;;;;;4980645;28;20039;-70
2022/08/31 01:34:04;;;;;;;0.40;0.10;;;17.80;96.50;;;;;;4980253;28;20061;-70
2022/08/31 01:36:32;;;;;;;0.75;0.38;;;17.80;96.60;;;;;;4980430;28;20097;-70
2022/08/31 01:38:58;;;;;;;0.93;0.22;;;17.70;96.50;;;;;;4980159;28;20373;-70
2022/08/31 01:41:24;;;;;;;0.60;0.10;;;17.70;96.60;;;;;;4980503;28;20046;-70
2022/08/31 01:43:51;;;;;;;0.52;0.20;;;17.70;96.70;;;;;;4979874;28;20090;-70
2022/08/31 01:46:18;;;;;;;2.28;0.17;;;17.70;96.80;;;;;;4980322;28;20046;-70
2022/08/31 01:48:45;;;;;;;0.88;0.30;;;17.60;96.70;;;;;;4980048;28;20445;-70
2022/08/31 01:51:13;;;;;;;1.00;0.25;;;17.50;96.80;;;;;;4979117;28;20131;-70
2022/08/31 01:53:41;;;;;;;0.90;0.20;;;17.40;96.80;;;;;;4979873;28;20035;-70
2022/08/31 01:56:22;;;;;;;0.50;0.10;;;17.40;96.80;;;;;;4980046;28;20047;-71
2022/08/31 01:58:48;;;;;;;1.13;0.20;;;17.20;96.90;;;;;;4980192;28;20043;-70
2022/08/31 02:01:14;;;;;;;1.52;0.30;;;17.10;97.00;;;;;;4979911;28;20047;-69
2022/08/31 02:03:40;;;;;;;2.53;0.32;;;17.00;97.10;;;;;;4979619;28;20047;-70
2022/08/31 02:06:11;;;;;;;1.83;0.22;;;17.00;97.10;;;;;;4978985;28;20381;-70
2022/08/31 02:08:38;;;;;;;2.70;0.38;;;16.90;97.10;;;;;;4979693;28;20039;-70
2022/08/31 02:11:04;;;;;;;0.95;0.30;;;16.90;97.30;;;;;;4979612;28;20444;-70
2022/08/31 02:13:31;;;;;;;1.88;0.25;;;16.80;97.30;;;;;;4979276;28;20114;-70
2022/08/31 02:15:56;;;;;;;1.20;0.40;;;16.70;97.30;;;;;;4979886;28;20035;-70
2022/08/31 02:18:22;;;;;;;0.55;0.20;;;16.70;97.50;;;;;;4979627;28;20456;-70
2022/08/31 02:20:48;;;;;;;0.70;0.30;;;16.70;97.60;;;;;;4979391;28;20043;-70
2022/08/31 02:23:14;;;;;;;1.88;0.65;;;16.70;97.50;;;;;;4994560;28;20054;-70
2022/08/31 02:25:39;;;;;;;1.77;0.30;;;16.50;97.60;;;;;;4994902;28;20043;-70
2022/08/31 02:28:05;;;;;;;1.27;0.40;;;16.40;97.80;;;;;;4979406;28;20094;-70
2022/08/31 02:30:31;;;;;;;0.75;0.22;;;16.40;97.80;;;;;;4979311;28;20129;-70
2022/08/31 02:32:57;;;;;;;0.98;0.30;;;16.40;98.00;;;;;;4979210;28;20170;-70
2022/08/31 02:35:23;;;;;;;0.68;0.30;;;16.30;98.10;;;;;;4978971;28;20054;-70
2022/08/31 02:37:48;;;;;;;1.75;0.40;;;16.30;98.00;;;;;;4978184;28;20082;-70
2022/08/31 02:40:14;;;;;;;0.65;0.30;;;16.30;98.10;;;;;;4979081;28;20314;-70
2022/08/31 02:42:40;;;;;;;1.92;0.30;;;16.20;98.10;;;;;;4978753;28;20085;-70
2022/08/31 02:45:06;;;;;;;0.80;0.40;;;16.20;98.10;;;;;;4979082;28;20049;-70
2022/08/31 02:47:33;;;;;;;0.68;0.28;;;16.30;98.10;;;;;;4979371;28;20046;-70
2022/08/31 02:50:01;;;;;;;2.38;0.30;;;16.20;98.00;;;;;;4978805;28;20043;-70
2022/08/31 02:52:27;;;;;;;1.67;0.55;;;16.30;98.10;;;;;;4979087;28;20101;-70
2022/08/31 02:54:52;;;;;;;0.95;0.47;;;16.30;98.10;;;;;;4993999;28;20413;-70
2022/08/31 02:57:18;;;;;;;2.13;0.45;;;16.30;98.20;;;;;;4978965;28;20382;-70
2022/08/31 02:59:44;;;;;;;1.38;0.30;;;16.30;98.10;;;;;;4994062;28;20046;-70
2022/08/31 03:02:10;;;;;;;0.70;0.30;;;16.30;98.10;;;;;;4977563;28;20047;-70
2022/08/31 03:04:35;;;;;;;0.95;0.40;;;16.30;98.10;;;;;;4978596;28;20046;-70
2022/08/31 03:07:01;;;;;;;3.05;0.30;;;16.30;98.10;;;;;;4978795;28;20381;-70
2022/08/31 03:09:27;;;;;;;1.33;0.35;;;16.30;98.10;;;;;;4978795;28;20341;-70
2022/08/31 03:11:53;;;;;;;0.82;0.32;;;16.20;98.20;;;;;;4978422;28;20431;-70
2022/08/31 03:14:18;;;;;;;0.50;0.20;;;16.20;98.20;;;;;;4977179;28;20132;-70
2022/08/31 03:16:44;;;;;;;0.70;0.32;;;16.20;98.30;;;;;;4978759;28;20039;-70
2022/08/31 03:19:10;;;;;;;0.70;0.30;;;16.20;98.30;;;;;;4978528;28;20030;-70
2022/08/31 03:21:36;;;;;;;1.20;0.30;;;16.20;98.20;;;;;;4977652;28;20050;-70
2022/08/31 03:24:02;;;;;;;0.32;0.20;;;16.40;98.30;;;;;;4978405;28;20345;-70
2022/08/31 03:26:28;;;;;;;3.53;0.38;;;16.30;98.20;;;;;;4993886;28;20046;-70
2022/08/31 03:28:54;;;;;;;1.10;0.40;;;16.30;98.20;;;;;;4978256;28;20430;-70
2022/08/31 03:31:21;;;;;;;1.63;0.30;;;16.40;98.20;;;;;;4978322;28;20101;-70
2022/08/31 03:33:47;;;;;;;2.75;0.30;;;16.40;98.30;;;;;;4978084;28;20038;-70
2022/08/31 03:36:14;;;;;;;1.98;0.28;;;16.30;98.20;;;;;;4976824;28;20129;-70
2022/08/31 03:38:40;;;;;;;0.60;0.30;;;16.30;98.20;;;;;;4978075;28;20323;-70
2022/08/31 03:41:06;;;;;;;1.30;0.40;;;16.20;98.20;;;;;;4978102;28;20078;-70
2022/08/31 03:43:33;;;;;;;1.05;0.40;;;16.10;98.30;;;;;;4976656;28;20050;-70
2022/08/31 03:45:58;;;;;;;1.42;0.38;;;16.20;98.30;;;;;;4977989;28;20070;-70
2022/08/31 03:48:24;;;;;;;1.10;0.20;;;16.30;98.40;;;;;;4976848;28;20050;-71
2022/08/31 03:50:50;;;;;;;1.75;0.43;;;16.30;98.20;;;;;;4977980;28;20100;-70
2022/08/31 03:53:16;;;;;;;2.45;0.57;;;16.20;98.30;;;;;;4978092;28;20319;-70
2022/08/31 03:55:42;;;;;;;0.73;0.30;;;16.20;98.30;;;;;;4977860;28;20042;-70
2022/08/31 03:58:09;;;;;;;0.38;0.22;;;15.90;98.40;;;;;;4977933;28;20035;-70
2022/08/31 04:00:37;;;;;;;4.00;0.22;;;15.80;98.50;;;;;;4977966;28;20042;-70
2022/08/31 04:03:03;;;;;;;0.82;0.30;;;15.90;98.50;;;;;;4977816;28;20034;-70
2022/08/31 04:05:31;;;;;;;0.60;0.28;;;15.70;98.50;;;;;;4977933;28;20101;-70
2022/08/31 04:07:57;;;;;;;1.00;0.38;;;15.70;98.60;;;;;;4977772;28;20066;-70
2022/08/31 04:10:23;;;;;;;1.50;0.35;;;15.70;98.50;;;;;;4977860;28;20050;-70
2022/08/31 04:12:49;;;;;;;1.55;0.43;;;15.60;98.60;;;;;;4977201;28;20081;-70
2022/08/31 04:15:16;;;;;;;1.27;0.40;;;15.50;98.70;;;;;;4977855;28;20492;-70
2022/08/31 04:17:43;;;;;;;0.80;0.30;;;15.50;98.80;;;;;;4977402;28;20043;-70
2022/08/31 04:20:09;;;;;;;1.80;0.40;;;15.50;98.80;;;;;;4977812;28;20378;-70
2022/08/31 04:22:35;;;;;;;1.85;0.43;;;15.50;98.80;;;;;;4976413;28;20047;-70
2022/08/31 04:25:01;;;;;;;0.88;0.45;;;15.50;98.70;;;;;;4976602;28;20050;-70
2022/08/31 04:27:26;;;;;;;0.75;0.40;;;15.50;98.80;;;;;;4981342;28;20078;-70
2022/08/31 04:29:52;;;;;;;0.70;0.30;;;15.40;98.90;;;;;;4981674;28;20042;-70
2022/08/31 04:32:18;;;;;;;0.75;0.35;;;15.40;98.90;;;;;;4981320;28;20039;-70
2022/08/31 04:34:44;;;;;;;1.48;0.52;;;15.30;98.90;;;;;;4981167;28;20090;-70
2022/08/31 04:37:13;;;;;;;3.55;0.35;;;15.40;99.00;;;;;;4981683;28;20089;-70
2022/08/31 04:39:42;;;;;;;0.60;0.22;;;15.30;98.90;;;;;;4981360;28;20039;-70
2022/08/31 04:42:09;;;;;;;1.23;0.47;;;15.30;98.90;;;;;;4981463;28;20054;-70
2022/08/31 04:44:35;;;;;;;3.60;0.70;;;15.30;99.00;;;;;;4980770;28;20129;-70
2022/08/31 04:47:00;;;;;;;0.50;0.20;;;15.20;99.00;;;;;;4981294;28;20086;-70
2022/08/31 04:49:26;;;;;;;1.27;0.30;;;15.20;99.00;;;;;;4981452;28;20050;-70
2022/08/31 04:51:52;;;;;;;1.25;0.32;;;15.10;99.10;;;;;;4980984;28;20043;-70
2022/08/31 04:54:17;;;;;;;1.73;0.57;;;15.10;99.10;;;;;;4981229;28;20042;-70
2022/08/31 04:56:44;;;;;;;1.05;0.40;;;15.10;99.20;;;;;;4981228;28;20046;-70
2022/08/31 04:59:12;;;;;;;5.90;0.50;;;15.10;99.10;;;;;;4981245;28;20085;-70
2022/08/31 05:01:41;;;;;;;2.53;0.30;;;15.00;99.20;;;;;;4981098;28;20053;-70
2022/08/31 05:04:08;;;;;;;1.15;0.30;;;15.00;99.20;;;;;;4981099;28;20074;-70
2022/08/31 05:06:36;;;;;;;1.25;0.40;;;15.00;99.20;;;;;;4981168;28;20097;-70
2022/08/31 05:09:09;;;;;;;0.70;0.32;;;15.00;99.30;;;;;;4980936;28;20046;-70
2022/08/31 05:11:35;;;;;;;0.90;0.50;;;15.10;99.30;;;;;;4981013;28;20038;-70
2022/08/31 05:14:02;;;;;;;1.15;0.45;;;15.00;99.30;;;;;;4980259;28;20043;-70
2022/08/31 05:16:32;;;;;;;1.25;0.50;;;15.10;99.30;;;;;;4979745;28;20050;-70
2022/08/31 05:18:58;;;;;;;1.42;0.40;;;15.10;99.40;;;;;;4980678;28;20053;-70
2022/08/31 05:21:27;;;;;;;3.03;0.50;;;15.20;99.40;;;;;;4980639;28;20393;-70
2022/08/31 05:23:58;;;;;;;0.73;0.40;;;15.20;99.40;;;;;;4980844;28;20085;-70
2022/08/31 05:26:27;;;;;;;1.27;0.40;;;15.30;99.60;;;;;;4980545;28;20034;-70
2022/08/31 05:28:53;;;;;;;1.20;0.50;;;15.40;99.40;;;;;;4980720;28;20046;-70
2022/08/31 05:31:20;;;;;;;3.47;0.40;;;15.50;99.50;;;;;;4980411;28;20043;-70
2022/08/31 05:33:46;;;;;;;0.93;0.40;;;15.50;99.40;;;;;;4980639;28;20109;-70
2022/08/31 05:36:12;;;;;;;1.08;0.43;;;15.60;99.30;;;;;;4980184;28;20122;-71
2022/08/31 05:38:38;;;;;;;1.73;0.40;;;15.50;99.50;;;;;;4979626;28;20039;-70
2022/08/31 05:41:05;;;;;;;1.45;0.22;;;15.60;99.50;;;;;;4980458;28;20121;-70
2022/08/31 05:43:32;;;;;;;1.77;0.65;;;15.60;99.50;;;;;;4980039;28;20043;-70
2022/08/31 05:45:58;;;;;;;1.63;0.70;;;15.70;99.60;;;;;;4979154;28;20053;-70
2022/08/31 05:48:24;;;;;;;2.47;0.52;;;15.80;99.60;;;;;;4980188;28;20066;-70
2022/08/31 05:50:50;;;;;;;2.75;0.50;;;15.90;99.60;;;;;;4980316;28;20049;-70
2022/08/31 05:53:16;;;;;;;3.33;0.45;;;16.10;99.60;;;;;;4979986;28;20043;-70
2022/08/31 05:55:42;;;;;;;1.27;0.32;;;16.20;99.60;;;;;;4980175;28;20057;-70
2022/08/31 05:58:08;;;;;;;1.15;0.50;;;16.30;99.60;;;;;;4979040;28;20125;-70
2022/08/31 06:00:37;;;;;;;1.52;0.60;;;16.40;99.70;;;;;;4980100;28;20081;-70
2022/08/31 06:03:04;;;;;;;2.17;0.60;;;16.50;99.50;;;;;;4979991;28;20074;-70
2022/08/31 06:05:29;;;;;;;1.85;0.60;;;16.50;99.50;;;;;;4979937;28;20445;-70
2022/08/31 06:07:55;;;;;;;2.42;0.75;;;16.60;99.50;;;;;;4979907;28;20046;-70
2022/08/31 06:10:21;;;;;;;2.15;0.50;;;16.70;99.50;;;;;;4979735;28;20098;-70
2022/08/31 06:12:47;;;;;;;1.40;0.57;;;16.90;99.40;;;;;;4979228;28;20437;-70
2022/08/31 06:15:14;;;;;;;2.42;0.60;;;17.00;99.40;;;;;;4979582;28;20043;-70
2022/08/31 06:17:40;;;;;;;1.77;0.57;;;17.00;99.40;;;;;;4979769;28;20453;-70
2022/08/31 06:20:07;;;;;;;2.13;0.60;;;17.10;99.40;;;;;;4979461;28;20434;-70
2022/08/31 06:22:35;;;;;;;2.05;0.50;;;17.10;99.50;;;;;;4979705;28;20046;-70
2022/08/31 06:25:01;;;;;;;0.98;0.60;;;17.30;99.40;;;;;;4979668;28;20127;-70
2022/08/31 06:27:26;;;;;;;2.40;0.45;;;17.20;99.20;;;;;;4979532;28;20050;-69
2022/08/31 06:29:52;;;;;;;0.75;0.35;;;17.20;99.30;;;;;;4979527;28;20043;-70
2022/08/31 06:32:19;;;;;;;2.38;0.55;;;17.40;99.10;;;;;;4994237;28;20095;-70
2022/08/31 06:34:44;;;;;;;2.90;0.40;;;17.30;99.10;;;;;;4994543;28;20129;-70
2022/08/31 06:37:11;;;;;;;1.70;0.50;;;17.30;99.30;;;;;;4978072;28;20118;-70
2022/08/31 06:39:38;;;;;;;1.77;1.08;;;17.40;99.30;;;;;;4979234;28;20050;-70
2022/08/31 06:42:04;;;;;;;2.97;0.70;;;17.40;99.20;;;;;;4979322;28;20043;-70
2022/08/31 06:44:30;;;;;;;3.85;0.50;;;17.50;99.20;;;;;;4977679;28;20500;-70
2022/08/31 06:46:56;;;;;;;0.77;0.40;;;17.70;99.30;;;;;;4979274;28;20046;-70
2022/08/31 06:49:22;;;;;;;1.17;0.43;;;17.70;99.10;;;;;;4979021;28;20121;-70
2022/08/31 06:51:49;;;;;;;1.27;0.57;;;17.70;99.10;;;;;;4978851;28;20053;-70
2022/08/31 06:54:16;;;;;;;1.40;0.50;;;17.70;99.00;;;;;;4978763;28;20303;-70
2022/08/31 06:56:42;;;;;;;2.67;0.57;;;17.80;98.80;;;;;;4979165;28;20093;-70
2022/08/31 06:59:08;;;;;;;2.08;0.40;;;17.90;99.00;;;;;;4978769;28;20369;-70
2022/08/31 07:01:35;;;;;;;0.80;0.40;;;18.10;98.80;;;;;;4978980;28;20448;-70
2022/08/31 07:04:04;;;;;;;1.92;0.70;;;18.10;98.70;;;;;;4978992;28;20050;-70
2022/08/31 07:06:33;;;;;;;0.70;0.40;;;18.20;98.80;;;;;;4978790;28;20121;-71
2022/08/31 07:09:02;;;;;;;2.53;0.60;;;18.20;98.80;;;;;;4978944;28;20333;-70
2022/08/31 07:11:28;;;;;;;3.22;0.63;;;18.30;98.80;;;;;;4978582;28;20117;-70
2022/08/31 07:13:55;;;;;;;3.10;0.88;;;18.40;98.80;;;;;;4977148;28;20377;-70
2022/08/31 07:16:23;;;;;;;1.38;0.60;;;18.50;98.70;;;;;;4978394;28;20078;-70
2022/08/31 07:18:51;;;;;;;0.32;0.20;;;18.60;98.60;;;;;;4993628;28;20043;-70
2022/08/31 07:21:24;;;;;;;1.80;0.40;;;18.60;98.50;;;;;;4978332;28;20483;-70
2022/08/31 07:23:50;;;;;;;0.80;0.32;;;18.70;98.30;;;;;;4978508;28;20038;-70
2022/08/31 07:26:23;;;;;;;1.38;0.38;;;18.60;98.50;;;;;;4978474;28;20043;-70
2022/08/31 07:28:52;;;;;;;0.70;0.30;;;18.70;98.40;;;;;;4978342;28;20129;-70
2022/08/31 07:31:24;;;;;;;1.75;0.40;;;18.70;98.30;;;;;;4978203;28;20121;-70
2022/08/31 07:33:54;;;;;;;2.42;0.50;;;18.60;98.40;;;;;;4978346;28;20031;-70
2022/08/31 07:36:21;;;;;;;1.02;0.30;;;18.60;98.20;;;;;;4977881;28;20051;-70
2022/08/31 07:44:17;;;;;;;1.42;0.40;;;18.80;98.30;;;;;;4990799;28;20054;-70
2022/08/31 07:46:44;;;;;;;2.28;0.50;;;18.90;98.30;;;;;;4977993;28;20039;-70
2022/08/31 07:49:12;;;;;;;3.08;0.60;;;19.10;98.20;;;;;;4977961;28;20053;-70
2022/08/31 07:51:49;;;;;;;0.63;0.30;;;19.00;98.20;;;;;;4978309;28;20047;-70
2022/08/31 07:54:19;;;;;;;2.10;0.47;;;19.20;97.90;;;;;;4978124;28;20035;-70
2022/08/31 07:56:47;;;;;;;2.22;0.20;;;19.20;97.80;;;;;;4978112;28;20047;-70
2022/08/31 07:59:13;;;;;;;1.08;0.40;;;19.20;97.60;;;;;;4992938;28;20034;-70
2022/08/31 08:01:40;;;;;;;1.20;0.30;;;19.10;97.80;;;;;;4977697;28;20047;-70
2022/08/31 08:04:06;;;;;;;2.58;0.22;;;19.20;97.70;;;;;;4977746;28;20365;-70
2022/08/31 08:06:32;;;;;;;2.05;0.30;;;19.30;97.60;;;;;;4977643;28;20038;-70
2022/08/31 08:09:05;;;;;;;4.10;0.38;;;19.30;97.60;;;;;;4977634;28;20042;-71
2022/08/31 08:11:32;;;;;;;2.10;0.30;;;19.50;97.70;;;;;;4977658;28;20311;-70
2022/08/31 08:13:58;;;;;;;0.50;0.20;;;19.60;97.60;;;;;;4977409;28;20062;-70
2022/08/31 08:16:24;;;;;;;0.60;0.22;;;19.70;97.40;;;;;;4976756;28;20096;-70
2022/08/31 08:18:50;;;;;;;0.63;0.30;;;19.70;97.60;;;;;;4977802;28;20438;-70
2022/08/31 08:21:16;;;;;;;1.00;0.40;;;19.90;97.70;;;;;;4977477;28;20082;-70
2022/08/31 08:23:41;;;;;;;0.77;0.30;;;20.10;97.60;;;;;;4977465;28;20043;-71
2022/08/31 08:26:11;;;;;;;0.93;0.38;;;19.90;97.60;;;;;;4977493;28;20043;-70
2022/08/31 08:28:36;;;;;;;1.70;0.40;;;20.10;97.50;;;;;;4977449;28;20511;-70
2022/08/31 08:31:02;;;;;;;0.77;0.30;;;20.00;97.60;;;;;;4977686;28;20043;-70
2022/08/31 08:33:30;;;;;;;2.03;0.40;;;19.90;97.50;;;;;;4992697;28;20132;-70
2022/08/31 08:36:02;;;;;;;6.90;0.40;;;19.90;97.40;;;;;;4977253;28;20166;-70
2022/08/31 08:38:32;;;;;;;2.63;0.50;;;19.90;97.50;;;;;;4977282;28;20113;-70
2022/08/31 08:41:00;;;;;;;1.77;0.40;;;20.00;97.50;;;;;;4977741;28;20046;-70
2022/08/31 08:43:35;;;;;;;1.13;0.43;;;20.10;97.50;;;;;;4976873;28;20066;-70
2022/08/31 08:46:03;;;;;;;4.80;0.40;;;20.00;97.60;;;;;;4977651;28;20144;-70
2022/08/31 08:48:36;;;;;;;2.92;0.43;;;20.10;97.50;;;;;;4977377;28;20042;-70
2022/08/31 08:51:08;;;;;;;0.68;0.40;;;20.20;97.60;;;;;;4977383;28;20042;-70
2022/08/31 08:53:37;;;;;;;1.30;0.65;;;20.30;97.50;;;;;;4977629;28;20340;-70
2022/08/31 08:56:03;;;;;;;2.40;0.32;;;20.30;97.50;;;;;;4976181;28;20422;-70
2022/08/31 08:58:30;;;;;;;2.55;0.45;;;20.60;97.40;;;;;;4976572;28;20115;-70
2022/08/31 09:00:56;;;;;;;2.80;0.50;;;20.80;97.30;;;;;;4977202;28;20465;-70
2022/08/31 09:03:45;;;;;;;1.13;0.40;;;20.90;97.00;;;;;;4977261;28;20085;-70
2022/08/31 09:06:30;;;;;;;1.00;0.22;;;21.00;97.00;;;;;;4992632;28;20039;-70
2022/08/31 09:09:07;;;;;;;1.10;0.43;;;21.00;97.30;;;;;;4977258;28;20121;-70
2022/08/31 09:11:54;;;;;;;2.00;0.40;;;21.10;97.10;;;;;;4977007;28;20047;-71
2022/08/31 09:14:20;;;;;;;2.17;0.30;;;21.10;97.20;;;;;;4980284;28;20121;-70
2022/08/31 09:17:06;;;;;;;2.40;0.40;;;21.20;96.90;;;;;;4980879;28;20122;-70
2022/08/31 09:19:57;;;;;;;2.20;0.45;;;21.10;96.70;;;;;;4980756;28;20138;-70
2022/08/31 09:22:17;;;;;;;19.90;0.73;;;21.30;97.00;;;;;;4980535;28;20050;-70
2022/08/31 09:24:43;;;;;;;4.10;0.60;;;21.40;96.80;;;;;;4980623;28;20149;-70
2022/08/31 09:27:18;;;;;;;1.00;0.38;;;21.50;96.50;;;;;;4980488;28;20051;-70
2022/08/31 09:29:54;;;;;;;2.25;0.30;;;21.50;96.80;;;;;;4980545;28;20067;-70
2022/08/31 09:32:27;;;;;;;3.13;0.35;;;21.50;96.70;;;;;;4980518;28;20054;-71
2022/08/31 09:35:06;;;;;;;1.75;0.30;;;21.40;96.60;;;;;;4980350;28;20070;-70
2022/08/31 09:37:43;;;;;;;4.72;0.50;;;21.30;96.80;;;;;;4980504;28;20066;-71
2022/08/31 09:40:13;;;;;;;2.90;0.60;;;21.40;96.80;;;;;;4980249;28;20035;-70
2022/08/31 09:42:39;;;;;;;2.85;0.43;;;21.30;96.70;;;;;;4980045;28;20054;-70
2022/08/31 09:45:28;;;;;;;1.58;0.47;;;21.40;96.70;;;;;;4980194;28;20042;-70
2022/08/31 09:47:59;;;;;;;1.17;0.40;;;21.60;96.60;;;;;;4980228;28;20118;-70
2022/08/31 09:50:45;;;;;;;2.08;0.32;;;21.80;96.60;;;;;;4980290;28;20046;-70
2022/08/31 09:56:21;;;;;;;1.13;0.30;;;22.30;96.50;;;;;;4995449;28;20381;-70
2022/08/31 09:58:49;;;;;;;;;;;22.60;96.20;;;;;;4980663;28;20049;-70
2022/08/31 10:01:33;;;;;;;2.38;0.40;;;22.60;96.00;;;;;;4979862;28;19925;-70
2022/08/31 10:04:13;;;;;;;1.38;0.30;;;22.70;96.00;;;;;;4995253;28;20085;-70
2022/08/31 10:06:54;;;;;;;0.80;0.30;;;22.80;95.80;;;;;;4980077;28;20050;-70
2022/08/31 10:09:34;;;;;;;1.23;0.30;;;22.90;95.90;;;;;;4979874;28;20062;-70
2022/08/31 10:12:06;;;;;;;10.32;0.43;;;22.80;95.20;;;;;;4979643;28;20053;-70
2022/08/31 10:14:54;;;;;;;4.00;0.60;;;22.90;95.40;;;;;;4979280;28;20038;-70
2022/08/31 10:17:29;;;;;;;1.15;0.40;;;22.70;95.70;;;;;;4979802;28;20116;-70
2022/08/31 10:20:04;;;;;;;2.55;0.30;;;22.90;95.60;;;;;;4979757;28;20047;-70
2022/08/31 10:22:37;;;;;;;;;;;23.00;95.60;;;;;;4979949;28;20043;-70
2022/08/31 10:25:11;;;;;;;2.65;0.50;;;23.00;95.80;;;;;;4979211;28;19917;-70
2022/08/31 10:28:05;;;;;;;2.78;0.43;;;23.30;95.70;;;;;;4979428;28;20051;-70
2022/08/31 10:30:41;;;;;;;2.45;0.40;;;23.40;95.20;;;;;;4976092;28;20085;-70
2022/08/31 10:35:01;;;;;;;1.13;0.50;;;23.50;95.40;;;;;;4979156;28;20043;-70
2022/08/31 10:36:14;;;;;;;1.83;0.50;;;23.70;95.30;;;;;;4979157;28;20059;-70
2022/08/31 10:38:44;;;;;;;3.08;0.40;;;24.00;95.60;;;;;;4979221;28;20121;-70
2022/08/31 10:41:16;;;;;;;2.58;0.47;;;24.20;95.10;;;;;;4979136;28;20046;-71
2022/08/31 10:43:52;;;;;;;1.48;0.30;;;24.50;95.20;;;;;;4994181;28;20054;-71
2022/08/31 10:46:18;;;;;;;0.80;0.30;;;24.60;94.90;;;;;;4979160;28;20038;-70
2022/08/31 10:48:53;;;;;;;1.40;0.50;;;24.60;95.00;;;;;;4979055;28;20039;-70
2022/08/31 10:52:07;;;;;;;4.68;0.40;;;24.50;95.00;;;;;;4979044;28;20130;-70
2022/08/31 10:55:08;;;;;;;1.05;0.40;;;24.30;94.90;;;;;;4977043;28;20311;-70
2022/08/31 10:57:55;;;;;;;0.70;0.30;;;24.20;95.10;;;;;;4978955;28;20043;-70
2022/08/31 11:00:44;;;;;;;0.73;0.35;;;24.60;95.10;;;;;;4978941;28;20047;-70
2022/08/31 11:03:13;;;;;;;2.15;0.40;;;25.00;94.90;;;;;;4978782;28;20093;-70
2022/08/31 11:06:02;;;;;;;1.25;0.45;;;25.30;94.50;;;;;;4977859;28;20529;-70
2022/08/31 11:08:52;;;;;;;0.57;0.30;;;25.50;94.90;;;;;;4978196;28;20195;-71
2022/08/31 11:11:35;;;;;;;1.00;0.40;;;25.80;94.90;;;;;;4978572;28;20047;-71
2022/08/31 11:14:13;;;;;;;1.20;0.20;;;26.00;94.50;;;;;;4978382;28;20086;-71
2022/08/31 11:16:49;;;;;;;2.58;0.30;;;26.10;94.00;;;;;;4978487;28;20540;-71
2022/08/31 11:19:51;;;;;;;0.93;0.20;;;26.20;94.30;;;;;;4978606;28;20035;-71
2022/08/31 11:22:55;;;;;;;0.82;0.40;;;26.10;94.50;;;;;;4978558;28;20043;-70
2022/08/31 11:25:46;;;;;;;1.60;0.30;;;25.90;93.90;;;;;;4978741;28;20137;-70
2022/08/31 11:28:32;;;;;;;0.73;0.20;;;26.00;94.00;;;;;;4978330;28;20061;-71
2022/08/31 11:31:16;;;;;;;1.17;0.30;;;26.20;94.20;;;;;;4978373;28;20129;-71
2022/08/31 11:33:55;;;;;;;0.90;0.40;;;26.60;94.40;;;;;;4978247;28;20046;-71
2022/08/31 11:36:51;;;;;;;0.75;0.28;;;26.70;93.70;;;;;;4977366;28;20177;-70
2022/08/31 11:39:25;;;;;;;3.42;0.25;;;26.50;93.60;;;;;;4978368;28;20047;-71
2022/08/31 11:41:52;;;;;;;2.08;0.30;;;26.40;93.20;;;;;;4977980;28;20373;-71
2022/08/31 11:44:30;;;;;;;2.40;0.30;;;26.30;93.20;;;;;;4976989;28;20326;-70
2022/08/31 11:47:11;;;;;;;0.77;0.20;;;26.40;92.50;;;;;;4978110;28;20093;-70
2022/08/31 11:49:45;;;;;;;0.82;0.35;;;26.40;93.00;;;;;;4977966;28;20045;-71
2022/08/31 11:52:41;;;;;;;1.95;0.30;;;26.80;93.40;;;;;;4978048;28;20038;-71
2022/08/31 11:55:09;;;;;;;;;;;27.10;93.20;;;;;;4978388;28;20034;-70
2022/08/31 11:58:06;;;;;;;1.75;0.40;;;27.50;93.40;;;;;;4978146;28;19925;-70
2022/08/31 12:01:01;;;;;;;2.28;0.32;;;27.10;92.70;;;;;;4976628;28;20134;-70
2022/08/31 12:03:52;;;;;;;3.03;0.30;;;26.90;92.80;;;;;;4977838;28;20038;-71
2022/08/31 12:06:26;;;;;;;1.10;0.40;;;27.30;93.00;;;;;;4977289;28;20046;-71
2022/08/31 12:09:10;;;;;;;1.80;0.30;;;27.30;92.90;;;;;;4977620;28;20050;-71
2022/08/31 12:11:51;;;;;;;1.20;0.30;;;27.00;92.80;;;;;;4977731;28;20105;-71
2022/08/31 12:14:36;;;;;;;0.50;0.30;;;26.80;92.50;;;;;;4977191;28;20425;-71
2022/08/31 12:17:20;;;;;;;2.47;0.30;;;26.90;92.40;;;;;;4977673;28;20038;-71
2022/08/31 12:20:07;;;;;;;1.83;0.35;;;27.10;92.50;;;;;;4977849;28;20051;-71
2022/08/31 12:26:28;;;;;;;1.88;0.30;;;27.90;92.50;;;;;;4977826;28;20130;-70
2022/08/31 12:29:18;;;;;;;3.97;1.00;;;27.80;92.60;;;;;;4977529;28;20042;-71
2022/08/31 12:32:22;;;;;;;1.02;0.30;;;27.80;92.60;;;;;;4977361;28;20050;-71
2022/08/31 12:35:16;;;;;;;0.93;0.30;;;27.70;92.30;;;;;;4977125;28;20065;-71
2022/08/31 12:37:42;;;;;;;1.45;0.30;;;27.70;92.20;;;;;;4977553;28;20051;-71
2022/08/31 12:40:21;;;;;;;0.68;0.30;;;28.20;92.50;;;;;;4977382;28;20038;-71
2022/08/31 12:43:09;;;;;;;3.20;0.20;;;28.50;92.40;;;;;;4976855;28;20484;-75
2022/08/31 12:45:58;;;;;;;0.80;0.20;;;28.70;92.20;;;;;;4977541;28;20043;-71
2022/08/31 12:48:55;;;;;;;0.82;0.30;;;28.50;92.10;;;;;;4980945;28;20050;-71
2022/08/31 12:51:30;;;;;;;3.38;0.40;;;28.50;92.10;;;;;;4981467;28;20061;-71
2022/08/31 12:54:18;;;;;;;1.43;0.20;;;28.30;91.90;;;;;;4981465;28;20074;-71
2022/08/31 12:56:58;;;;;;;0.73;0.20;;;28.30;91.90;;;;;;4981005;28;20042;-71
2022/08/31 12:59:57;;;;;;;1.38;0.30;;;28.70;91.90;;;;;;4981255;28;20477;-71
2022/08/31 13:02:23;;;;;;;2.28;0.30;;;28.70;92.00;;;;;;4980345;28;20376;-71
2022/08/31 13:04:49;;;;;;;1.02;0.20;;;28.70;92.00;;;;;;4980883;28;20131;-71
2022/08/31 13:07:31;;;;;;;1.70;0.20;;;29.00;92.10;;;;;;4980072;28;20125;-72
2022/08/31 13:10:20;;;;;;;1.23;0.38;;;29.60;92.10;;;;;;4980911;28;20058;-71
2022/08/31 13:12:52;;;;;;;1.95;0.32;;;29.60;92.00;;;;;;4995840;28;20491;-71
2022/08/31 13:15:37;;;;;;;1.05;0.17;;;29.80;92.00;;;;;;4980851;28;20039;-71
2022/08/31 13:18:10;;;;;;;2.65;0.28;;;29.80;91.60;;;;;;4980751;28;20042;-71
2022/08/31 13:20:42;;;;;;;1.15;0.30;;;29.60;91.60;;;;;;4980993;28;20105;-71
2022/08/31 13:23:12;;;;;;;2.95;0.40;;;29.30;91.50;;;;;;4980764;28;20038;-71
2022/08/31 13:25:38;;;;;;;2.70;0.60;;;28.70;91.50;;;;;;4980639;28;20050;-71